Time;durP1;ratioP1;P1;durP2;ratioP2;P2;SDS_P1;SDS_P2;PMS_P1;PMS_P2;Temp;Humidity;BMP_temperature;BMP_pressure;BME280_temperature;BME280_humidity;BME280_pressure;Samples;Min_cycle;Max_cycle;Signal;HPM_P1;HPM_P2
2023/05/18 00:02:04;;;;;;;0.75;0.40;;;;;;;11.21;91.03;93429.19;5004209;28;20025;-74
2023/05/18 00:04:32;;;;;;;2.00;0.50;;;;;;;11.16;92.24;93426.72;5003824;28;20205;-73
2023/05/18 00:07:02;;;;;;;1.77;0.82;;;;;;;11.13;92.15;93426.59;5004124;28;20010;-74
2023/05/18 00:09:34;;;;;;;1.77;0.63;;;;;;;11.18;92.75;93434.41;5003849;28;20076;-74
2023/05/18 00:12:01;;;;;;;0.85;0.50;;;;;;;11.16;92.85;93441.94;5003768;28;20049;-74
2023/05/18 00:14:27;;;;;;;0.43;0.30;;;;;;;11.24;93.47;93435.75;5002923;28;20038;-73
2023/05/18 00:16:53;;;;;;;1.33;0.40;;;;;;;11.30;92.16;93439.00;5004155;28;20094;-74
2023/05/18 00:19:20;;;;;;;0.95;0.30;;;;;;;11.34;91.15;93437.25;5003782;28;20045;-74
2023/05/18 00:21:46;;;;;;;0.90;0.40;;;;;;;11.42;91.20;93442.50;4986897;28;20030;-75
2023/05/18 00:24:14;;;;;;;1.13;0.50;;;;;;;11.45;91.72;93433.06;5003553;28;20046;-74
2023/05/18 00:26:43;;;;;;;3.78;0.50;;;;;;;11.53;91.68;93436.75;5003780;28;20030;-74
2023/05/18 00:29:09;;;;;;;1.50;0.47;;;;;;;11.53;91.21;93434.09;5003830;28;20022;-74
2023/05/18 00:31:37;;;;;;;0.65;0.40;;;;;;;11.57;91.16;93441.09;5003878;28;20073;-75
2023/05/18 00:34:06;;;;;;;0.50;0.40;;;;;;;11.64;90.60;93448.56;5003583;28;20026;-75
2023/05/18 00:36:33;;;;;;;1.10;0.50;;;;;;;11.69;90.51;93432.34;5003708;28;20032;-75
2023/05/18 00:38:59;;;;;;;1.02;0.40;;;;;;;11.65;88.60;93436.78;5003845;28;20084;-75
2023/05/18 00:41:25;;;;;;;0.68;0.38;;;;;;;11.56;89.08;93444.09;5003619;28;20022;-75
2023/05/18 00:43:51;;;;;;;0.95;0.40;;;;;;;11.61;89.77;93441.22;5003215;28;20033;-75
2023/05/18 00:46:17;;;;;;;1.92;0.40;;;;;;;11.65;90.14;93442.13;5003215;28;20027;-75
2023/05/18 00:48:43;;;;;;;3.90;0.30;;;;;;;11.72;90.22;93436.25;5003596;28;20304;-75
2023/05/18 00:51:09;;;;;;;0.82;0.30;;;;;;;11.78;90.48;93433.03;5003671;28;20093;-75
2023/05/18 00:53:35;;;;;;;0.45;0.32;;;;;;;11.80;90.37;93420.13;5003622;28;20050;-76
2023/05/18 00:56:02;;;;;;;1.15;0.40;;;;;;;11.84;90.05;93421.06;5003344;28;20064;-75
2023/05/18 00:58:28;;;;;;;1.10;0.50;;;;;;;11.92;89.35;93418.63;5003320;28;20034;-76
2023/05/18 01:00:53;;;;;;;0.75;0.60;;;;;;;11.90;89.04;93415.50;5003161;28;20224;-75
2023/05/18 01:03:20;;;;;;;3.50;0.85;;;;;;;11.94;89.09;93408.41;5003371;28;20030;-75
2023/05/18 01:05:56;;;;;;;0.77;0.35;;;;;;;11.87;88.77;93416.16;5002580;28;20324;-75
2023/05/18 01:08:23;;;;;;;0.77;0.47;;;;;;;11.84;88.37;93418.38;5002919;28;20030;-75
2023/05/18 01:11:01;;;;;;;2.78;0.22;;;;;;;11.89;88.57;93419.31;5003069;28;20217;-75
2023/05/18 01:13:38;;;;;;;0.93;0.40;;;;;;;11.93;88.94;93425.53;5003451;28;20105;-75
2023/05/18 01:16:08;;;;;;;1.27;0.40;;;;;;;11.96;88.95;93428.31;5003154;28;20022;-76
2023/05/18 01:18:42;;;;;;;3.95;0.60;;;;;;;11.99;89.07;93418.88;5003312;28;20022;-75
2023/05/18 01:21:18;;;;;;;1.50;0.57;;;;;;;12.00;89.18;93425.75;5003247;28;20097;-75
2023/05/18 01:24:14;;;;;;;1.90;0.57;;;;;;;11.99;88.51;93426.88;5003261;28;20029;-76
2023/05/18 01:26:44;;;;;;;0.60;0.40;;;;;;;12.00;88.25;93429.22;5003207;28;20243;-75
2023/05/18 01:29:12;;;;;;;0.77;0.40;;;;;;;12.00;88.46;93423.09;5003229;28;20031;-75
2023/05/18 01:31:38;;;;;;;2.47;0.70;;;;;;;11.99;88.76;93425.00;5002399;28;20026;-75
2023/05/18 01:34:04;;;;;;;1.10;0.63;;;;;;;11.99;88.76;93424.22;5002968;28;20037;-76
2023/05/18 01:36:30;;;;;;;3.00;0.63;;;;;;;12.01;89.23;93432.69;5002881;28;20030;-76
2023/05/18 01:39:00;;;;;;;1.75;0.57;;;;;;;12.02;89.18;93429.66;5003099;28;20392;-76
2023/05/18 01:41:27;;;;;;;2.33;0.63;;;;;;;12.03;89.26;93438.47;5002828;28;20030;-75
2023/05/18 01:44:11;;;;;;;1.45;0.63;;;;;;;12.01;89.66;93436.13;5002887;28;20027;-76
2023/05/18 01:46:46;;;;;;;3.08;0.90;;;;;;;12.02;89.75;93428.88;5002787;28;20076;-76
2023/05/18 01:49:28;;;;;;;1.50;0.70;;;;;;;12.00;89.95;93431.09;5002922;28;20041;-76
2023/05/18 01:51:56;;;;;;;2.55;0.40;;;;;;;12.02;90.10;93421.63;5002679;28;20213;-76
2023/05/18 01:54:23;;;;;;;1.35;0.55;;;;;;;11.95;90.31;93418.75;5002639;28;20042;-76
2023/05/18 01:56:53;;;;;;;1.77;0.73;;;;;;;11.96;90.46;93424.88;5002631;28;20093;-76
2023/05/18 01:59:19;;;;;;;2.03;1.00;;;;;;;11.98;90.55;93434.09;5002726;28;20025;-76
2023/05/18 02:01:45;;;;;;;1.77;0.90;;;;;;;11.97;90.81;93429.13;5002936;28;20026;-76
2023/05/18 02:04:10;;;;;;;7.65;0.90;;;;;;;11.99;90.89;93426.88;5002789;28;20320;-75
2023/05/18 02:06:36;;;;;;;4.72;0.95;;;;;;;12.05;90.73;93433.56;5002971;28;20019;-76
2023/05/18 02:09:04;;;;;;;5.40;0.75;;;;;;;12.08;90.51;93432.91;5002994;28;20330;-76
2023/05/18 02:11:30;;;;;;;1.80;0.98;;;;;;;12.11;90.56;93436.78;5002678;28;20073;-74
2023/05/18 02:13:56;;;;;;;2.45;0.93;;;;;;;12.14;90.28;93436.91;4985307;28;20209;-75
2023/05/18 02:16:21;;;;;;;2.33;1.17;;;;;;;12.14;89.91;93439.59;5002601;28;20026;-75
2023/05/18 02:18:48;;;;;;;1.40;0.85;;;;;;;12.14;90.04;93439.59;5005673;28;20050;-74
2023/05/18 02:21:13;;;;;;;2.45;0.98;;;;;;;12.16;90.32;93442.69;5006352;28;20362;-74
2023/05/18 02:23:40;;;;;;;2.08;1.00;;;;;;;12.19;90.13;93435.91;5006372;28;20026;-74
2023/05/18 02:26:05;;;;;;;2.95;1.10;;;;;;;12.21;90.37;93439.81;5006249;28;20069;-75
2023/05/18 02:28:31;;;;;;;2.13;1.10;;;;;;;12.26;89.94;93443.38;5006150;28;20029;-75
2023/05/18 02:31:10;;;;;;;3.50;1.00;;;;;;;12.20;89.76;93438.25;5005908;28;20026;-75
2023/05/18 02:33:38;;;;;;;3.88;1.10;;;;;;;12.20;89.89;93435.56;5006239;28;20072;-75
2023/05/18 02:36:12;;;;;;;8.20;1.10;;;;;;;12.21;89.90;93442.50;5006037;28;20228;-75
2023/05/18 02:38:42;;;;;;;2.13;1.00;;;;;;;12.21;90.10;93436.34;5005467;28;20057;-75
2023/05/18 02:41:10;;;;;;;3.50;1.35;;;;;;;12.20;90.01;93440.16;5005910;28;20026;-76
2023/05/18 02:43:36;;;;;;;2.80;1.15;;;;;;;12.21;90.43;93441.69;5005746;28;20331;-76
2023/05/18 02:46:03;;;;;;;2.78;0.98;;;;;;;12.19;90.15;93444.72;5005684;28;20023;-76
2023/05/18 02:48:28;;;;;;;6.50;1.17;;;;;;;12.15;90.22;93443.81;4988091;28;20057;-76
2023/05/18 02:50:54;;;;;;;1.95;1.13;;;;;;;12.17;90.33;93446.94;5005694;28;20030;-76
2023/05/18 02:53:20;;;;;;;2.00;1.10;;;;;;;12.12;90.12;93454.38;5005463;28;20109;-77
2023/05/18 02:55:47;;;;;;;2.30;1.10;;;;;;;12.08;90.47;93445.47;5005631;28;20098;-77
2023/05/18 02:58:13;;;;;;;2.88;1.40;;;;;;;11.97;90.82;93448.56;4988243;28;20054;-76
2023/05/18 03:00:39;;;;;;;4.43;1.67;;;;;;;11.98;90.89;93457.38;5005335;28;20026;-76
2023/05/18 03:03:04;;;;;;;3.95;1.38;;;;;;;12.01;91.06;93467.41;5005703;28;20026;-77
2023/05/18 03:05:30;;;;;;;5.10;1.67;;;;;;;11.99;91.21;93466.94;5005153;28;20061;-76
2023/05/18 03:07:56;;;;;;;4.60;1.50;;;;;;;11.95;91.10;93482.84;5005439;28;20026;-76
2023/05/18 03:10:22;;;;;;;6.07;2.60;;;;;;;11.96;91.57;93470.28;5005273;28;20316;-77
2023/05/18 03:12:48;;;;;;;4.57;2.33;;;;;;;11.94;91.95;93475.94;5005307;28;20094;-76
2023/05/18 03:15:14;;;;;;;3.50;1.58;;;;;;;11.91;92.31;93486.53;4987290;28;20041;-76
2023/05/18 03:17:41;;;;;;;4.15;2.20;;;;;;;11.88;92.85;93481.78;5005215;28;20205;-76
2023/05/18 03:20:09;;;;;;;4.07;2.38;;;;;;;11.86;93.04;93498.13;4987288;28;20057;-76
2023/05/18 03:22:35;;;;;;;4.22;1.73;;;;;;;11.86;92.98;93503.47;5005217;28;20260;-76
2023/05/18 03:25:01;;;;;;;4.53;1.30;;;;;;;11.87;92.53;93506.94;5005228;28;20026;-76
2023/05/18 03:27:26;;;;;;;2.15;1.17;;;;;;;11.77;91.97;93502.81;5004733;28;20034;-76
2023/05/18 03:29:52;;;;;;;8.70;1.30;;;;;;;11.76;92.45;93507.34;5004261;28;20097;-76
2023/05/18 03:32:18;;;;;;;3.22;0.82;;;;;;;11.76;92.29;93507.34;5004823;28;20251;-76
2023/05/18 03:34:46;;;;;;;3.35;1.00;;;;;;;11.74;92.19;93512.22;5004645;28;20022;-76
2023/05/18 03:37:12;;;;;;;5.22;1.23;;;;;;;11.73;92.50;93510.69;5004582;28;20045;-77
2023/05/18 03:39:38;;;;;;;1.40;0.88;;;;;;;11.76;92.41;93510.00;5004554;28;20073;-76
2023/05/18 03:42:03;;;;;;;5.15;1.25;;;;;;;11.71;92.50;93509.44;5004966;28;20054;-76
2023/05/18 03:44:29;;;;;;;2.33;1.33;;;;;;;11.63;92.51;93519.09;5004605;28;20339;-76
2023/05/18 03:46:55;;;;;;;2.67;1.50;;;;;;;11.61;93.09;93513.28;4987450;28;20030;-75
2023/05/18 03:49:20;;;;;;;2.55;1.52;;;;;;;11.54;93.33;93516.50;5004839;28;20324;-76
2023/05/18 03:51:46;;;;;;;2.78;1.75;;;;;;;11.53;93.56;93514.16;5004676;28;20332;-75
2023/05/18 03:54:11;;;;;;;3.63;2.05;;;;;;;11.49;93.75;93523.91;5004490;28;20339;-75
2023/05/18 03:56:37;;;;;;;4.07;2.50;;;;;;;11.45;93.91;93523.78;5004380;28;20253;-75
2023/05/18 03:59:03;;;;;;;4.63;2.47;;;;;;;11.39;94.38;93525.84;5005061;28;20045;-75
2023/05/18 04:01:32;;;;;;;5.45;2.47;;;;;;;11.35;94.60;93519.63;5004600;28;20032;-75
2023/05/18 04:03:58;;;;;;;3.75;2.53;;;;;;;11.26;94.99;93532.25;5004560;28;20026;-75
2023/05/18 04:06:25;;;;;;;12.68;8.13;;;;;;;11.28;95.24;93530.03;5004606;28;20033;-74
2023/05/18 04:08:51;;;;;;;8.43;3.15;;;;;;;11.35;95.61;93540.97;5004159;28;20022;-74
2023/05/18 04:11:17;;;;;;;8.15;3.03;;;;;;;11.38;95.23;93540.31;5004237;28;20084;-74
2023/05/18 04:13:43;;;;;;;3.78;2.70;;;;;;;11.42;95.31;93551.91;4986910;28;20312;-76
2023/05/18 04:16:12;;;;;;;6.18;2.90;;;;;;;11.50;94.95;93541.47;5003878;28;20029;-75
2023/05/18 04:18:40;;;;;;;4.63;3.10;;;;;;;11.54;94.89;93542.38;5003951;28;20025;-76
2023/05/18 04:21:05;;;;;;;14.20;3.75;;;;;;;11.59;94.62;93548.31;5004264;28;20030;-74
2023/05/18 04:23:37;;;;;;;3.88;2.80;;;;;;;11.63;94.10;93543.13;5004243;28;20042;-74
2023/05/18 04:26:04;;;;;;;5.63;3.20;;;;;;;11.66;93.99;93539.78;5004036;28;20089;-76
2023/05/18 04:28:30;;;;;;;3.50;2.53;;;;;;;11.73;93.83;93540.03;5004007;28;20026;-76
2023/05/18 04:30:55;;;;;;;6.75;3.05;;;;;;;11.77;93.58;93535.59;5003925;28;20018;-75
2023/05/18 04:33:21;;;;;;;5.80;2.88;;;;;;;11.84;93.11;93535.06;4986517;28;20029;-75
2023/05/18 04:35:47;;;;;;;5.50;3.03;;;;;;;11.85;92.62;93542.00;5003677;28;20053;-75
2023/05/18 04:38:13;;;;;;;4.90;3.17;;;;;;;11.89;92.80;93547.50;5003570;28;20025;-75
2023/05/18 04:40:41;;;;;;;4.78;3.03;;;;;;;11.93;92.83;93543.81;5003625;28;20014;-75
2023/05/18 04:43:07;;;;;;;4.78;3.08;;;;;;;11.99;92.65;93552.41;5003699;28;20046;-75
2023/05/18 04:45:32;;;;;;;6.38;3.15;;;;;;;12.03;92.08;93547.97;5003867;28;20014;-76
2023/05/18 04:47:58;;;;;;;4.20;3.25;;;;;;;11.95;92.13;93548.84;4986286;28;20022;-75
2023/05/18 04:50:23;;;;;;;5.28;3.60;;;;;;;12.01;92.15;93559.00;5003605;28;20029;-75
2023/05/18 04:52:50;;;;;;;4.03;2.80;;;;;;;12.10;91.85;93563.47;5003463;28;20021;-76
2023/05/18 04:55:26;;;;;;;5.85;3.05;;;;;;;12.13;91.57;93558.25;5003466;28;20325;-76
2023/05/18 04:57:55;;;;;;;7.95;3.28;;;;;;;12.18;91.51;93566.03;5003294;28;20066;-76
2023/05/18 05:00:22;;;;;;;7.22;3.33;;;;;;;12.21;91.20;93564.59;5003400;28;20154;-76
2023/05/18 05:02:48;;;;;;;9.57;3.95;;;;;;;12.25;90.97;93576.19;5002816;28;20034;-76
2023/05/18 05:05:13;;;;;;;8.20;3.40;;;;;;;12.26;90.56;93582.34;5003541;28;20026;-76
2023/05/18 05:07:39;;;;;;;5.05;3.20;;;;;;;12.25;90.78;93584.19;5003606;28;20157;-76
2023/05/18 05:10:05;;;;;;;5.07;2.95;;;;;;;12.28;89.84;93575.53;5003495;28;20117;-76
2023/05/18 05:12:31;;;;;;;5.32;2.45;;;;;;;12.36;90.02;93581.91;5003068;28;20022;-76
2023/05/18 05:14:56;;;;;;;4.90;2.88;;;;;;;12.39;89.15;93586.59;5003008;28;20069;-76
2023/05/18 05:17:22;;;;;;;5.22;2.60;;;;;;;12.37;88.32;93576.22;5002924;28;20030;-76
2023/05/18 05:19:48;;;;;;;3.10;2.08;;;;;;;12.42;88.32;93594.72;5003263;28;20022;-76
2023/05/18 05:22:13;;;;;;;3.28;2.25;;;;;;;12.47;87.75;93591.06;5003249;28;20214;-77
2023/05/18 05:24:39;;;;;;;7.15;1.73;;;;;;;12.53;87.77;93596.97;5002453;28;20026;-75
2023/05/18 05:27:04;;;;;;;2.40;1.40;;;;;;;12.55;86.24;93590.19;5003107;28;20022;-75
2023/05/18 05:29:30;;;;;;;3.63;1.25;;;;;;;12.58;86.15;93594.09;5003250;28;20023;-76
2023/05/18 05:31:55;;;;;;;3.45;1.65;;;;;;;12.64;86.76;93603.47;5003011;28;20509;-76
2023/05/18 05:34:21;;;;;;;3.35;1.98;;;;;;;12.60;86.77;93599.91;5002905;28;20197;-76
2023/05/18 05:36:46;;;;;;;2.80;1.95;;;;;;;12.64;87.20;93603.47;5003174;28;20328;-76
2023/05/18 05:39:12;;;;;;;2.50;1.67;;;;;;;12.67;86.67;93604.69;5003046;28;20082;-76
2023/05/18 05:41:38;;;;;;;2.97;1.23;;;;;;;12.71;85.81;93609.03;5003204;28;20148;-75
2023/05/18 05:44:04;;;;;;;3.63;1.33;;;;;;;12.75;86.43;93614.50;4985473;28;20076;-76
2023/05/18 05:46:29;;;;;;;2.50;1.55;;;;;;;12.71;84.42;93609.03;5003079;28;20022;-75
2023/05/18 05:48:55;;;;;;;2.50;1.45;;;;;;;12.68;82.91;93614.25;5003175;28;20065;-76
2023/05/18 05:51:20;;;;;;;2.67;1.40;;;;;;;12.71;83.43;93609.03;4985548;28;20018;-76
2023/05/18 05:53:46;;;;;;;2.92;1.30;;;;;;;12.72;83.71;93620.50;5006125;28;21100;-76
2023/05/18 05:56:12;;;;;;;4.25;1.50;;;;;;;12.73;83.52;93619.41;5006835;28;20026;-76
2023/05/18 05:58:37;;;;;;;6.18;1.67;;;;;;;12.75;84.66;93619.88;5006660;28;20270;-76
2023/05/18 06:01:03;;;;;;;5.97;1.98;;;;;;;12.77;85.27;93617.63;5006508;28;20026;-75
2023/05/18 06:03:30;;;;;;;2.75;1.70;;;;;;;12.69;84.87;93624.63;5006329;28;20030;-75
2023/05/18 06:05:56;;;;;;;2.95;1.55;;;;;;;12.71;85.89;93625.09;5006145;28;20030;-76
2023/05/18 06:08:23;;;;;;;2.72;1.73;;;;;;;12.72;86.36;93617.84;5006388;28;20205;-77
2023/05/18 06:10:48;;;;;;;9.18;2.45;;;;;;;12.62;86.98;93622.50;5006693;28;20049;-76
2023/05/18 06:13:15;;;;;;;6.03;3.67;;;;;;;12.65;87.79;93629.09;5006698;28;20026;-76
2023/05/18 06:15:40;;;;;;;5.15;2.80;;;;;;;12.56;88.02;93625.75;5006246;28;20325;-75
2023/05/18 06:18:05;;;;;;;6.88;3.70;;;;;;;12.54;88.63;93619.94;5006531;28;20026;-75
2023/05/18 06:20:31;;;;;;;6.78;4.03;;;;;;;12.53;89.10;93623.72;5005996;28;20400;-74
2023/05/18 06:22:56;;;;;;;6.93;3.78;;;;;;;12.51;89.31;93636.63;5006473;28;20084;-76
2023/05/18 06:25:23;;;;;;;8.07;3.83;;;;;;;12.54;90.35;93622.63;5005955;28;20045;-72
2023/05/18 06:27:49;;;;;;;3.70;2.42;;;;;;;12.51;89.39;93637.41;5006050;28;20034;-74
2023/05/18 06:30:14;;;;;;;3.42;2.03;;;;;;;12.48;89.54;93631.97;5006026;28;20056;-73
2023/05/18 06:32:40;;;;;;;2.70;1.38;;;;;;;12.44;88.97;93637.94;5006180;28;20036;-73
2023/05/18 06:35:06;;;;;;;2.95;1.60;;;;;;;12.47;88.35;93639.16;5006157;28;20056;-74
2023/05/18 06:37:32;;;;;;;4.03;1.70;;;;;;;12.49;88.49;93644.97;5006060;28;20054;-73
2023/05/18 06:39:57;;;;;;;3.58;2.05;;;;;;;12.43;87.94;93647.06;5005944;28;20038;-74
2023/05/18 06:42:23;;;;;;;5.75;2.13;;;;;;;12.40;88.40;93650.41;5005913;28;20029;-73
2023/05/18 06:44:49;;;;;;;4.13;2.90;;;;;;;12.42;89.17;93660.78;5006047;28;20093;-74
2023/05/18 06:47:15;;;;;;;5.45;2.63;;;;;;;12.40;89.09;93652.31;5005523;28;20300;-75
2023/05/18 06:49:41;;;;;;;5.65;3.15;;;;;;;12.39;89.38;93661.41;5003870;28;20049;-75
2023/05/18 06:52:08;;;;;;;7.65;2.20;;;;;;;12.34;89.37;93653.63;5005529;28;20045;-75
2023/05/18 06:54:34;;;;;;;5.30;2.47;;;;;;;12.37;89.67;93659.06;5004208;28;20327;-74
2023/05/18 06:57:00;;;;;;;4.65;2.92;;;;;;;12.41;90.52;93662.66;5002604;28;20038;-73
2023/05/18 06:59:25;;;;;;;3.80;2.45;;;;;;;12.51;89.48;93666.03;5002577;28;20037;-74
2023/05/18 07:01:51;;;;;;;3.88;2.35;;;;;;;12.54;89.11;93668.84;5002849;28;20022;-74
2023/05/18 07:04:18;;;;;;;7.13;3.08;;;;;;;12.56;88.94;93677.31;4984955;28;20369;-74
2023/05/18 07:06:44;;;;;;;4.47;2.58;;;;;;;12.50;87.71;93677.84;5003546;28;20018;-75
2023/05/18 07:09:09;;;;;;;8.93;2.90;;;;;;;12.44;88.02;93679.94;5003532;28;20025;-74
2023/05/18 07:11:35;;;;;;;7.47;2.95;;;;;;;12.45;88.35;93684.16;5004882;28;20037;-74
2023/05/18 07:14:00;;;;;;;7.43;2.95;;;;;;;12.45;87.72;93692.94;5004854;28;20036;-74
2023/05/18 07:16:26;;;;;;;5.20;3.03;;;;;;;12.51;88.19;93693.53;5005232;28;20024;-74
2023/05/18 07:18:52;;;;;;;5.30;2.95;;;;;;;12.56;88.91;93697.91;5005156;28;20209;-74
2023/05/18 07:21:17;;;;;;;10.93;4.00;;;;;;;12.51;86.56;93692.75;5004580;28;20065;-74
2023/05/18 07:23:43;;;;;;;9.13;4.20;;;;;;;12.55;86.12;93697.13;5005128;28;20320;-74
2023/05/18 07:26:10;;;;;;;8.25;4.22;;;;;;;12.65;86.73;93703.94;5004731;28;20018;-74
2023/05/18 07:28:36;;;;;;;7.35;3.65;;;;;;;12.69;85.36;93696.84;5005088;28;20379;-75
2023/05/18 07:31:02;;;;;;;5.65;3.83;;;;;;;12.74;85.47;93709.22;5005585;28;20228;-74
2023/05/18 07:33:28;;;;;;;6.07;3.97;;;;;;;12.79;85.66;93709.00;5005145;28;20075;-74
2023/05/18 07:35:53;;;;;;;7.80;4.25;;;;;;;12.78;84.80;93715.47;5004990;28;20050;-74
2023/05/18 07:38:19;;;;;;;10.30;5.20;;;;;;;12.77;84.75;93705.88;5004873;28;20033;-74
2023/05/18 07:40:44;;;;;;;8.70;4.35;;;;;;;12.74;84.34;93720.72;5004463;28;20026;-75
2023/05/18 07:43:10;;;;;;;6.72;4.78;;;;;;;12.64;83.67;93716.53;5004891;28;20076;-74
2023/05/18 07:45:36;;;;;;;14.43;5.70;;;;;;;12.65;84.70;93712.75;5005194;28;20094;-75
2023/05/18 07:48:01;;;;;;;8.95;5.78;;;;;;;12.54;84.60;93721.53;5004640;28;20049;-75
2023/05/18 07:50:28;;;;;;;12.10;6.05;;;;;;;12.49;84.37;93735.09;5004429;28;20038;-75
2023/05/18 07:52:54;;;;;;;16.70;8.13;;;;;;;12.51;84.75;93733.63;5004557;28;20299;-75
2023/05/18 07:55:19;;;;;;;14.00;6.97;;;;;;;12.56;84.37;93735.34;5004628;28;20053;-74
2023/05/18 07:57:45;;;;;;;10.25;7.20;;;;;;;12.61;84.20;93737.81;5004582;28;20085;-75
2023/05/18 08:00:11;;;;;;;15.10;8.13;;;;;;;12.71;84.76;93747.31;5004536;28;20022;-74
2023/05/18 08:02:37;;;;;;;17.48;6.80;;;;;;;12.74;83.47;93743.97;5003844;28;20033;-75
2023/05/18 08:05:03;;;;;;;10.32;6.28;;;;;;;12.81;81.61;93754.94;5004206;28;20289;-75
2023/05/18 08:07:31;;;;;;;13.70;6.88;;;;;;;12.80;81.08;93751.47;5004415;28;20100;-75
2023/05/18 08:09:57;;;;;;;12.13;6.32;;;;;;;12.77;80.78;93759.38;5004204;28;20053;-75
2023/05/18 08:12:23;;;;;;;11.68;6.28;;;;;;;12.70;81.08;93756.44;5004071;28;20068;-75
2023/05/18 08:14:49;;;;;;;12.63;6.22;;;;;;;12.70;81.01;93759.13;5003702;28;20085;-75
2023/05/18 08:17:14;;;;;;;12.88;7.05;;;;;;;12.75;80.58;93765.03;5004419;28;20221;-75
2023/05/18 08:19:40;;;;;;;18.52;7.55;;;;;;;12.82;81.24;93765.31;5004067;28;20209;-75
2023/05/18 08:22:06;;;;;;;13.45;7.47;;;;;;;12.91;82.95;93762.53;5004099;28;20206;-75
2023/05/18 08:24:32;;;;;;;13.13;8.45;;;;;;;12.94;81.19;93767.22;4986715;28;20034;-75
2023/05/18 08:26:58;;;;;;;13.30;8.05;;;;;;;12.95;80.96;93773.38;5004082;28;20018;-75
2023/05/18 08:29:23;;;;;;;14.52;8.68;;;;;;;13.01;81.61;93772.84;5003901;28;20193;-75
2023/05/18 08:31:50;;;;;;;14.70;8.00;;;;;;;13.04;81.75;93776.72;5004093;28;20030;-75
2023/05/18 08:34:15;;;;;;;20.08;8.45;;;;;;;13.08;82.43;93787.56;5004152;28;20022;-74
2023/05/18 08:36:43;;;;;;;15.63;7.93;;;;;;;13.14;81.96;93780.91;5003775;28;20257;-74
2023/05/18 08:39:09;;;;;;;17.40;7.78;;;;;;;13.17;82.56;93785.59;5003865;28;20022;-76
2023/05/18 08:41:40;;;;;;;14.23;8.95;;;;;;;13.19;83.34;93789.50;5003738;28;20030;-75
2023/05/18 08:44:19;;;;;;;14.02;9.13;;;;;;;13.22;83.65;93791.50;5003812;28;20030;-75
2023/05/18 08:46:48;;;;;;;21.08;8.30;;;;;;;13.27;83.17;93798.56;5003539;28;20014;-77
2023/05/18 08:49:16;;;;;;;13.32;8.43;;;;;;;13.31;82.96;93796.81;5003601;28;20045;-74
2023/05/18 08:51:45;;;;;;;17.75;8.70;;;;;;;13.35;81.47;93803.06;5003144;28;20133;-73
2023/05/18 08:54:14;;;;;;;16.90;8.40;;;;;;;13.39;78.50;93793.25;5003440;28;20279;-73
2023/05/18 08:56:40;;;;;;;14.93;8.05;;;;;;;13.38;77.79;93810.41;5003500;28;20042;-74
2023/05/18 08:59:07;;;;;;;14.25;9.25;;;;;;;13.40;79.36;93810.88;5003625;28;20022;-74
2023/05/18 09:01:34;;;;;;;12.75;9.10;;;;;;;13.43;79.44;93814.78;4986016;28;20023;-74
2023/05/18 09:04:00;;;;;;;14.95;9.88;;;;;;;13.46;79.64;93824.06;5003406;28;20073;-74
2023/05/18 09:06:29;;;;;;;16.60;10.25;;;;;;;13.48;79.95;93816.47;4986011;28;20359;-74
2023/05/18 09:09:03;;;;;;;15.00;9.50;;;;;;;13.53;79.49;93824.28;5003287;28;20029;-74
2023/05/18 09:11:29;;;;;;;10.65;7.90;;;;;;;13.48;78.01;93829.88;5003389;28;20026;-74
2023/05/18 09:13:55;;;;;;;20.85;8.35;;;;;;;13.46;77.95;93834.78;5002984;28;20311;-73
2023/05/18 09:16:20;;;;;;;12.82;8.13;;;;;;;13.37;77.23;93832.16;5003075;28;20026;-74
2023/05/18 09:18:46;;;;;;;12.65;8.27;;;;;;;13.28;78.33;93824.19;5002985;28;20041;-74
2023/05/18 09:21:11;;;;;;;11.98;7.50;;;;;;;13.26;78.16;93837.13;5003137;28;20022;-74
2023/05/18 09:23:40;;;;;;;13.15;7.07;;;;;;;13.26;77.40;93834.44;5003028;28;20018;-74
2023/05/18 09:26:10;;;;;;;13.55;6.80;;;;;;;13.24;77.16;93834.00;5003103;28;20272;-74
2023/05/18 09:28:44;;;;;;;10.60;7.10;;;;;;;13.27;76.91;93835.22;5002232;28;20045;-74
2023/05/18 09:31:16;;;;;;;23.60;6.57;;;;;;;13.29;76.72;93838.34;5003229;28;20030;-74
2023/05/18 09:33:43;;;;;;;16.10;7.47;;;;;;;13.30;74.77;93838.06;5003090;28;20049;-74
2023/05/18 09:36:11;;;;;;;17.48;7.70;;;;;;;13.30;75.16;93843.41;5002295;28;20027;-74
2023/05/18 09:38:38;;;;;;;20.83;7.55;;;;;;;13.36;75.92;93842.09;5002944;28;20022;-74
2023/05/18 09:41:09;;;;;;;15.05;7.65;;;;;;;13.37;76.18;93846.34;5003535;28;20201;-74
2023/05/18 09:43:34;;;;;;;14.75;7.50;;;;;;;13.37;76.86;93842.88;5003015;28;20026;-74
2023/05/18 09:46:05;;;;;;;16.60;6.85;;;;;;;13.30;76.53;93846.09;5002727;28;20093;-73
2023/05/18 09:48:30;;;;;;;12.30;6.75;;;;;;;13.31;76.24;93853.03;5002645;28;20093;-74
2023/05/18 09:50:58;;;;;;;16.17;5.57;;;;;;;13.35;74.21;93853.94;5003025;28;20038;-74
2023/05/18 09:53:24;;;;;;;9.05;6.05;;;;;;;13.37;75.13;93851.69;5002844;28;20114;-74
2023/05/18 09:55:49;;;;;;;8.18;5.10;;;;;;;13.41;75.21;93857.97;5002769;28;20038;-74
2023/05/18 09:58:15;;;;;;;8.70;5.57;;;;;;;13.47;74.78;93857.75;5002428;28;20033;-74
2023/05/18 10:00:52;;;;;;;11.02;6.10;;;;;;;13.57;75.02;93857.31;5002690;28;20058;-74
2023/05/18 10:03:23;;;;;;;15.73;7.10;;;;;;;13.62;75.17;93852.53;5002613;28;20030;-74
2023/05/18 10:05:49;;;;;;;12.68;6.65;;;;;;;13.67;74.44;93854.22;5002043;28;20174;-74
2023/05/18 10:08:15;;;;;;;9.88;6.57;;;;;;;13.69;74.30;93860.00;5002744;28;20090;-74
2023/05/18 10:10:46;;;;;;;13.85;6.47;;;;;;;13.72;73.61;93861.25;5002266;28;20328;-74
2023/05/18 10:13:14;;;;;;;17.05;7.32;;;;;;;13.73;72.70;93865.50;5002727;28;20228;-73
2023/05/18 10:15:52;;;;;;;13.70;6.93;;;;;;;13.77;72.88;93869.06;5002479;28;20026;-74
2023/05/18 10:18:28;;;;;;;9.80;6.93;;;;;;;13.82;74.26;93866.19;5002401;28;20034;-74
2023/05/18 10:20:59;;;;;;;19.38;6.72;;;;;;;13.81;73.20;93862.72;5002390;28;20037;-74
2023/05/18 10:23:26;;;;;;;11.52;5.70;;;;;;;13.80;72.26;93866.53;5001732;28;20038;-74
2023/05/18 10:25:53;;;;;;;11.00;5.97;;;;;;;13.81;72.80;93868.06;5002263;28;20042;-74
2023/05/18 10:28:27;;;;;;;10.52;5.65;;;;;;;13.77;72.03;93861.81;5002456;28;20085;-74
2023/05/18 10:30:54;;;;;;;10.85;6.35;;;;;;;13.76;73.47;93879.03;5002308;28;20042;-75
2023/05/18 10:33:27;;;;;;;11.18;6.07;;;;;;;13.64;73.22;93873.63;5002343;28;20228;-74
2023/05/18 10:35:54;;;;;;;14.27;6.47;;;;;;;13.60;74.26;93888.81;5002177;28;20088;-74
2023/05/18 10:38:25;;;;;;;19.58;5.90;;;;;;;13.58;75.17;93885.69;5002923;28;20026;-74
2023/05/18 10:40:53;;;;;;;14.10;6.85;;;;;;;13.56;75.15;93885.22;5005745;28;20264;-74
2023/05/18 10:43:22;;;;;;;11.88;7.60;;;;;;;13.53;74.44;93888.53;5005878;28;20030;-74
2023/05/18 10:46:00;;;;;;;11.57;6.47;;;;;;;13.56;74.76;93882.53;5005715;28;20105;-74
2023/05/18 10:48:28;;;;;;;13.10;7.00;;;;;;;13.58;75.07;93881.09;5005156;28;20089;-74
2023/05/18 10:50:55;;;;;;;13.30;6.90;;;;;;;13.62;75.31;93887.34;5005456;28;20026;-75
2023/05/18 10:53:26;;;;;;;21.35;9.60;;;;;;;13.68;74.59;93887.94;5005601;28;20052;-74
2023/05/18 10:55:52;;;;;;;13.40;8.38;;;;;;;13.72;73.49;93896.88;5005741;28;20030;-74
2023/05/18 10:58:20;;;;;;;18.60;8.35;;;;;;;13.74;72.73;93886.59;5005470;28;20046;-74
2023/05/18 11:00:50;;;;;;;11.90;8.52;;;;;;;13.84;72.08;93899.56;5005115;28;20093;-74
2023/05/18 11:03:17;;;;;;;13.65;8.45;;;;;;;13.88;72.35;93894.34;5005576;28;20034;-74
2023/05/18 11:05:47;;;;;;;11.70;6.55;;;;;;;13.92;71.08;93895.25;5005304;28;20044;-74
2023/05/18 11:08:25;;;;;;;10.85;6.30;;;;;;;13.89;70.65;93895.88;5005072;28;20264;-74
2023/05/18 11:10:59;;;;;;;11.07;5.65;;;;;;;13.93;72.11;93901.38;5005191;28;20049;-74
2023/05/18 11:13:28;;;;;;;11.57;5.88;;;;;;;13.91;71.33;93908.97;5005335;28;20022;-74
2023/05/18 11:15:54;;;;;;;11.75;6.45;;;;;;;13.92;72.60;93907.81;5005034;28;20030;-75
2023/05/18 11:18:40;;;;;;;10.63;6.30;;;;;;;13.89;73.70;93908.50;5005397;28;20324;-75
2023/05/18 11:21:40;;;;;;;13.25;6.40;;;;;;;13.91;73.25;93908.97;5005553;28;20224;-74
2023/05/18 11:24:22;;;;;;;8.48;5.70;;;;;;;13.91;73.76;93914.31;5005515;28;20026;-75
2023/05/18 11:26:59;;;;;;;13.50;6.47;;;;;;;13.90;74.31;93918.91;5004921;28;20092;-74
2023/05/18 11:29:39;;;;;;;12.60;5.90;;;;;;;13.92;75.38;93923.91;5005190;28;20221;-74
2023/05/18 11:32:21;;;;;;;13.25;5.85;;;;;;;13.97;75.87;93923.72;5005253;28;20082;-74
2023/05/18 11:34:51;;;;;;;7.43;5.75;;;;;;;14.03;76.74;93933.88;5004821;28;20368;-74